Time;durP1;ratioP1;P1;durP2;ratioP2;P2;SDS_P1;SDS_P2;PMS_P1;PMS_P2;Temp;Humidity;BMP_temperature;BMP_pressure;BME280_temperature;BME280_humidity;BME280_pressure;Samples;Min_cycle;Max_cycle;Signal;HPM_P1;HPM_P2
2021/01/10 00:00:52;;;;;;;32.92;21.95;;;-1.80;99.90;;;;;;5097534;28;20253;-84
2021/01/10 00:03:19;;;;;;;33.55;22.70;;;-1.70;99.90;;;;;;5099331;28;20220;-84
2021/01/10 00:05:45;;;;;;;30.45;22.40;;;-1.70;99.90;;;;;;5099135;28;20211;-84
2021/01/10 00:08:11;;;;;;;32.58;22.08;;;-1.70;99.90;;;;;;5099350;28;20196;-84
2021/01/10 00:10:37;;;;;;;31.48;22.27;;;-1.80;99.90;;;;;;5097734;28;20200;-84
2021/01/10 00:13:05;;;;;;;36.20;24.33;;;-1.70;99.90;;;;;;5101520;28;20216;-84
2021/01/10 00:15:32;;;;;;;33.30;23.65;;;-1.80;99.90;;;;;;5099300;28;20195;-83
2021/01/10 00:17:59;;;;;;;35.88;25.08;;;-1.90;99.90;;;;;;5100886;28;20195;-83
2021/01/10 00:20:27;;;;;;;37.30;23.35;;;-1.90;99.90;;;;;;5100120;28;20192;-83
2021/01/10 00:22:54;;;;;;;33.38;22.92;;;-1.90;99.90;;;;;;5098960;28;20243;-83
2021/01/10 00:25:21;;;;;;;38.28;24.25;;;-2.00;99.90;;;;;;5099496;28;20203;-83
2021/01/10 00:27:47;;;;;;;34.45;23.30;;;-2.00;99.90;;;;;;5101286;28;20559;-84
2021/01/10 00:30:16;;;;;;;35.90;23.77;;;-2.00;99.90;;;;;;5099281;28;20649;-84
2021/01/10 00:32:47;;;;;;;32.10;24.80;;;-2.00;99.90;;;;;;5099884;28;20257;-83
2021/01/10 00:35:14;;;;;;;36.20;25.95;;;-1.90;99.90;;;;;;5100381;28;20199;-83
2021/01/10 00:37:45;;;;;;;39.63;24.95;;;-1.80;99.90;;;;;;5100580;28;20191;-83
2021/01/10 00:40:12;;;;;;;34.75;25.20;;;-1.60;99.90;;;;;;5101408;28;20192;-83
2021/01/10 00:42:40;;;;;;;41.08;22.83;;;-1.60;99.90;;;;;;5098475;28;20707;-83
2021/01/10 00:45:07;;;;;;;37.30;23.75;;;-1.60;99.90;;;;;;5100067;28;20201;-83
2021/01/10 00:47:33;;;;;;;33.58;20.40;;;-1.60;99.90;;;;;;5103379;28;20200;-83
2021/01/10 00:49:59;;;;;;;32.65;21.45;;;-1.70;99.90;;;;;;5104358;28;20208;-83
2021/01/10 00:52:29;;;;;;;32.78;22.35;;;-1.70;99.90;;;;;;5103694;28;20200;-82
2021/01/10 00:54:55;;;;;;;29.60;21.30;;;-1.70;99.90;;;;;;5102658;28;20193;-83
2021/01/10 00:57:21;;;;;;;28.77;19.48;;;-1.60;99.90;;;;;;5103729;28;20204;-83
2021/01/10 00:59:48;;;;;;;29.10;21.77;;;-1.50;99.90;;;;;;5104441;28;20192;-83
2021/01/10 01:02:14;;;;;;;30.60;21.05;;;-1.50;99.90;;;;;;5104805;28;20222;-83
2021/01/10 01:04:40;;;;;;;31.52;20.20;;;-1.40;99.90;;;;;;5101695;28;20285;-83
2021/01/10 01:07:06;;;;;;;29.33;21.17;;;-1.40;99.90;;;;;;5103775;28;20200;-83
2021/01/10 01:09:33;;;;;;;25.88;17.95;;;-1.30;99.90;;;;;;5109049;28;20805;-84
2021/01/10 01:12:00;;;;;;;30.42;18.80;;;-1.30;99.90;;;;;;5094365;28;20216;-84
2021/01/10 01:14:26;;;;;;;30.67;18.60;;;-1.20;99.90;;;;;;5107649;28;20295;-83
2021/01/10 01:16:52;;;;;;;31.10;20.15;;;-1.20;99.90;;;;;;5108628;28;20193;-83
2021/01/10 01:19:19;;;;;;;27.55;19.60;;;-1.20;99.90;;;;;;5094586;28;20201;-83
2021/01/10 01:21:50;;;;;;;22.17;17.13;;;-1.10;99.90;;;;;;5094078;28;20688;-84
2021/01/10 01:24:19;;;;;;;28.20;19.25;;;-1.10;99.90;;;;;;5094794;28;20225;-83
2021/01/10 01:26:46;;;;;;;26.25;17.25;;;-1.10;99.90;;;;;;5091021;28;20617;-83
2021/01/10 01:29:13;;;;;;;29.70;20.23;;;-1.00;99.90;;;;;;5074119;28;20212;-83
2021/01/10 01:31:39;;;;;;;32.42;19.75;;;-1.00;99.90;;;;;;5075005;28;20205;-83
2021/01/10 01:34:05;;;;;;;24.88;17.58;;;-0.90;99.90;;;;;;5081687;28;20717;-83
2021/01/10 01:36:31;;;;;;;22.25;16.80;;;-0.90;99.90;;;;;;5073590;28;20205;-83
2021/01/10 01:38:59;;;;;;;29.33;17.30;;;-0.90;99.90;;;;;;5093799;28;20215;-83
2021/01/10 01:41:26;;;;;;;23.73;16.58;;;-1.00;99.90;;;;;;5094259;28;20216;-83
2021/01/10 01:43:54;;;;;;;24.05;18.25;;;-0.90;99.90;;;;;;5074670;28;20685;-83
2021/01/10 01:46:28;;;;;;;22.13;15.90;;;-0.90;99.90;;;;;;5073510;28;20205;-83
2021/01/10 01:48:55;;;;;;;26.00;18.67;;;-0.90;99.90;;;;;;5091366;28;20283;-83
2021/01/10 01:51:21;;;;;;;25.52;17.17;;;-1.00;99.90;;;;;;5080256;28;20286;-84
2021/01/10 01:53:48;;;;;;;26.80;17.92;;;-1.00;99.90;;;;;;5073860;28;20624;-84
2021/01/10 01:56:15;;;;;;;22.50;15.85;;;-0.90;99.90;;;;;;5087899;28;20207;-83
2021/01/10 01:58:57;;;;;;;28.23;18.50;;;-0.90;99.90;;;;;;5104572;28;20207;-83
2021/01/10 02:01:25;;;;;;;24.40;17.40;;;-1.00;99.90;;;;;;5080971;28;20735;-83
2021/01/10 02:03:56;;;;;;;24.77;19.80;;;-0.90;99.90;;;;;;5073505;28;20233;-83
2021/01/10 02:06:27;;;;;;;28.83;18.83;;;-0.80;99.90;;;;;;5084567;28;20197;-83
2021/01/10 02:09:02;;;;;;;23.48;17.05;;;-0.80;99.90;;;;;;5093625;28;20204;-83
2021/01/10 02:11:31;;;;;;;27.55;18.40;;;-0.90;99.90;;;;;;5091763;28;20196;-83
2021/01/10 02:14:03;;;;;;;28.10;17.77;;;-1.00;99.90;;;;;;5093379;28;20212;-83
2021/01/10 02:16:29;;;;;;;26.55;18.33;;;-1.10;99.90;;;;;;5081474;28;20197;-83
2021/01/10 02:18:57;;;;;;;26.70;19.15;;;-1.20;99.90;;;;;;5074988;28;20200;-83
2021/01/10 02:21:24;;;;;;;26.10;18.30;;;-1.30;99.90;;;;;;5093339;28;20200;-83
2021/01/10 02:23:54;;;;;;;32.17;19.90;;;-1.40;99.90;;;;;;5091216;28;20700;-83
2021/01/10 02:26:21;;;;;;;29.23;18.60;;;-1.40;99.90;;;;;;5072721;28;20200;-85
2021/01/10 02:28:48;;;;;;;27.08;18.67;;;-1.40;99.90;;;;;;5073007;28;20189;-83
2021/01/10 02:31:15;;;;;;;26.50;17.25;;;-1.40;99.90;;;;;;5074905;28;20197;-83
2021/01/10 02:33:47;;;;;;;26.40;18.77;;;-1.50;99.90;;;;;;5081212;28;20208;-83
2021/01/10 02:36:22;;;;;;;22.63;17.35;;;-1.50;99.90;;;;;;5092841;28;20627;-83
2021/01/10 02:38:55;;;;;;;25.55;18.55;;;-1.60;99.90;;;;;;5083624;28;20239;-83
2021/01/10 02:41:34;;;;;;;22.45;17.88;;;-1.70;99.90;;;;;;5072852;28;20235;-83
2021/01/10 02:44:07;;;;;;;26.00;17.33;;;-1.80;99.90;;;;;;5082297;28;20228;-83
2021/01/10 02:46:36;;;;;;;24.83;18.67;;;-1.80;99.90;;;;;;5092582;28;20273;-83
2021/01/10 02:49:03;;;;;;;27.58;17.50;;;-1.90;99.90;;;;;;5082983;28;20621;-83
2021/01/10 02:51:29;;;;;;;28.88;17.55;;;-2.00;99.90;;;;;;5077075;28;20679;-83
2021/01/10 02:53:55;;;;;;;28.17;19.70;;;-2.00;99.90;;;;;;5092625;28;20228;-83
2021/01/10 02:56:22;;;;;;;23.88;17.33;;;-2.10;99.90;;;;;;5088911;28;20193;-83
2021/01/10 02:58:51;;;;;;;28.15;19.33;;;-2.10;99.90;;;;;;5072165;28;20255;-83
2021/01/10 03:01:18;;;;;;;29.15;18.73;;;-2.10;99.90;;;;;;5073703;28;20197;-83
2021/01/10 03:03:46;;;;;;;27.00;17.60;;;-2.20;99.90;;;;;;5092369;28;20644;-83
2021/01/10 03:06:12;;;;;;;21.38;16.60;;;-2.20;99.90;;;;;;5090984;28;20201;-83
2021/01/10 03:08:39;;;;;;;30.60;17.33;;;-2.20;99.90;;;;;;5072010;28;20197;-83
2021/01/10 03:11:05;;;;;;;29.55;18.30;;;-2.30;99.90;;;;;;5072065;28;20212;-83
2021/01/10 03:13:32;;;;;;;31.23;17.98;;;-2.20;99.90;;;;;;5090857;28;20236;-83
2021/01/10 03:16:00;;;;;;;27.40;18.52;;;-2.20;99.90;;;;;;5092160;28;20287;-83
2021/01/10 03:18:26;;;;;;;21.80;16.63;;;-2.20;99.90;;;;;;5091405;28;20196;-84
2021/01/10 03:20:52;;;;;;;26.67;19.20;;;-2.20;99.90;;;;;;5092071;28;20227;-83
2021/01/10 03:23:18;;;;;;;26.60;18.50;;;-2.30;99.90;;;;;;5075799;28;20351;-83
2021/01/10 03:25:45;;;;;;;29.55;18.48;;;-2.30;99.90;;;;;;5071455;28;20212;-83
2021/01/10 03:28:11;;;;;;;25.65;17.20;;;-2.30;99.90;;;;;;5085750;28;20599;-83
2021/01/10 03:30:37;;;;;;;24.75;17.25;;;-2.30;99.90;;;;;;5091967;28;20201;-83
2021/01/10 03:33:05;;;;;;;26.27;18.02;;;-2.20;99.90;;;;;;5079350;28;20217;-83
2021/01/10 03:35:34;;;;;;;27.70;17.52;;;-2.20;99.90;;;;;;5071458;28;20197;-83
2021/01/10 03:38:01;;;;;;;28.00;17.70;;;-2.20;99.90;;;;;;5082827;28;20228;-83
2021/01/10 03:40:27;;;;;;;23.42;16.75;;;-2.20;99.90;;;;;;5091815;28;20208;-83
2021/01/10 03:42:53;;;;;;;29.15;18.90;;;-2.20;99.90;;;;;;5081665;28;20274;-83
2021/01/10 03:45:19;;;;;;;27.17;16.77;;;-2.10;99.90;;;;;;5071246;28;20259;-83
2021/01/10 03:47:45;;;;;;;23.73;16.30;;;-2.00;99.90;;;;;;5079086;28;20192;-83
2021/01/10 03:50:12;;;;;;;22.20;15.20;;;-1.80;99.90;;;;;;5091827;28;20196;-83
2021/01/10 03:52:38;;;;;;;23.13;16.35;;;-1.80;99.90;;;;;;5085105;28;20217;-83
2021/01/10 03:55:06;;;;;;;21.77;15.73;;;-1.70;99.90;;;;;;5080006;28;20205;-83
2021/01/10 03:57:32;;;;;;;21.23;16.17;;;-1.60;99.90;;;;;;5071408;28;20201;-83
2021/01/10 03:59:59;;;;;;;19.35;13.43;;;-1.50;99.90;;;;;;5071393;28;20212;-83
2021/01/10 04:02:25;;;;;;;22.02;13.88;;;-1.50;99.90;;;;;;5091279;28;20208;-83
2021/01/10 04:04:51;;;;;;;18.85;14.20;;;-1.40;99.90;;;;;;5076128;28;20193;-83
2021/01/10 04:07:18;;;;;;;23.13;16.90;;;-1.40;99.90;;;;;;5071380;28;20193;-83
2021/01/10 04:09:44;;;;;;;19.17;13.48;;;-1.40;99.90;;;;;;5083560;28;20208;-83
2021/01/10 04:12:10;;;;;;;22.00;14.30;;;-1.40;99.90;;;;;;5091226;28;20196;-83
2021/01/10 04:14:36;;;;;;;19.63;13.57;;;-1.30;99.90;;;;;;5090590;28;20247;-83
2021/01/10 04:17:03;;;;;;;18.55;14.18;;;-1.30;99.90;;;;;;5091604;28;20208;-83
2021/01/10 04:19:29;;;;;;;20.30;14.25;;;-1.30;99.90;;;;;;5084958;28;20201;-83
2021/01/10 04:21:55;;;;;;;20.33;13.43;;;-1.20;99.90;;;;;;5075417;28;20303;-83
2021/01/10 04:24:22;;;;;;;17.33;13.82;;;-1.10;99.90;;;;;;5083064;28;20225;-83
2021/01/10 04:26:50;;;;;;;17.77;13.57;;;-1.10;99.90;;;;;;5095237;28;20223;-83
2021/01/10 04:29:19;;;;;;;19.23;13.60;;;-1.00;99.90;;;;;;5088216;28;20250;-83
2021/01/10 04:31:45;;;;;;;20.85;14.55;;;-1.00;99.90;;;;;;5075017;28;20207;-83
2021/01/10 04:34:11;;;;;;;18.77;14.18;;;-0.90;99.90;;;;;;5080587;28;20212;-83
2021/01/10 04:36:37;;;;;;;17.75;14.60;;;-0.90;99.90;;;;;;5094904;28;20197;-83
2021/01/10 04:39:04;;;;;;;24.15;15.60;;;-0.90;99.90;;;;;;5090830;28;20254;-82
2021/01/10 04:41:32;;;;;;;19.42;14.60;;;-0.90;99.90;;;;;;5074825;28;20205;-83
2021/01/10 04:43:59;;;;;;;22.48;15.93;;;-0.90;99.90;;;;;;5077336;28;20213;-83
2021/01/10 04:46:27;;;;;;;23.10;15.73;;;-0.90;99.90;;;;;;5094766;28;20266;-83
2021/01/10 04:48:54;;;;;;;24.60;13.88;;;-0.90;99.90;;;;;;5093276;28;20684;-83
2021/01/10 04:51:24;;;;;;;22.40;15.43;;;-0.80;99.90;;;;;;5074728;28;20197;-83
2021/01/10 04:53:51;;;;;;;19.33;15.15;;;-0.80;99.90;;;;;;5075108;28;20217;-83
2021/01/10 04:56:18;;;;;;;24.08;15.70;;;-0.80;99.90;;;;;;5074317;28;20197;-83
2021/01/10 04:58:51;;;;;;;22.25;14.82;;;-0.80;99.90;;;;;;5090531;28;20287;-83
2021/01/10 05:01:20;;;;;;;21.83;16.33;;;-0.70;99.90;;;;;;5094785;28;20212;-84
2021/01/10 05:03:46;;;;;;;26.35;17.05;;;-0.80;99.90;;;;;;5078384;28;20229;-83
2021/01/10 05:06:12;;;;;;;25.48;17.92;;;-0.70;99.90;;;;;;5074008;28;20213;-84
2021/01/10 05:08:39;;;;;;;23.40;16.05;;;-0.70;99.90;;;;;;5088618;28;20197;-83
2021/01/10 05:11:05;;;;;;;21.83;15.70;;;-0.70;99.90;;;;;;5092875;28;20200;-83
2021/01/10 05:13:31;;;;;;;23.50;15.25;;;-0.70;99.90;;;;;;5094444;28;20731;-83
2021/01/10 05:15:59;;;;;;;26.35;15.95;;;-0.70;99.90;;;;;;5092649;28;21046;-83
2021/01/10 05:18:26;;;;;;;22.58;16.92;;;-0.60;99.90;;;;;;5094538;28;20212;-83
2021/01/10 05:20:55;;;;;;;20.98;15.73;;;-0.60;99.90;;;;;;5092901;28;20196;-83
2021/01/10 05:23:24;;;;;;;21.45;15.70;;;-0.60;99.90;;;;;;5073883;28;20291;-83
2021/01/10 05:26:03;;;;;;;29.38;15.98;;;-0.60;99.90;;;;;;5074057;28;20205;-83
2021/01/10 05:28:30;;;;;;;21.20;15.20;;;-0.60;99.90;;;;;;5094509;28;20291;-83
2021/01/10 05:30:59;;;;;;;21.92;15.18;;;-0.60;99.90;;;;;;5092403;28;20283;-83
2021/01/10 05:33:25;;;;;;;17.88;14.32;;;-0.50;99.90;;;;;;5073929;28;20320;-83
2021/01/10 05:35:52;;;;;;;19.77;14.57;;;-0.50;99.90;;;;;;5073493;28;20201;-83
2021/01/10 05:38:26;;;;;;;21.40;16.45;;;-0.50;99.90;;;;;;5074258;28;20688;-83
2021/01/10 05:40:54;;;;;;;21.45;16.17;;;-0.50;99.90;;;;;;5073737;28;20197;-83
2021/01/10 05:43:20;;;;;;;20.13;15.18;;;-0.50;99.90;;;;;;5092816;28;20252;-83
2021/01/10 05:45:47;;;;;;;20.63;14.93;;;-0.50;99.90;;;;;;5093582;28;20904;-83
2021/01/10 05:48:15;;;;;;;22.73;14.07;;;-0.50;99.90;;;;;;5076289;28;20572;-83
2021/01/10 05:50:43;;;;;;;23.23;15.90;;;-0.50;99.90;;;;;;5073532;28;20205;-83
2021/01/10 05:53:16;;;;;;;20.25;16.35;;;-0.50;99.90;;;;;;5090030;28;20220;-83
2021/01/10 05:55:56;;;;;;;21.55;15.25;;;-0.50;99.90;;;;;;5093461;28;20201;-83
2021/01/10 05:58:27;;;;;;;22.65;14.88;;;-0.60;99.90;;;;;;5077047;28;20734;-83
2021/01/10 06:00:54;;;;;;;19.55;15.60;;;-0.50;99.90;;;;;;5079746;28;20215;-83
2021/01/10 06:03:22;;;;;;;18.00;14.95;;;-0.50;99.90;;;;;;5073400;28;20222;-83
2021/01/10 06:05:56;;;;;;;21.30;14.90;;;-0.50;99.90;;;;;;5085066;28;20192;-83
2021/01/10 06:08:26;;;;;;;22.33;15.52;;;-0.50;99.90;;;;;;5093584;28;20884;-83
2021/01/10 06:10:52;;;;;;;23.75;15.82;;;-0.50;99.90;;;;;;5082048;28;20244;-83
2021/01/10 06:13:19;;;;;;;19.00;14.90;;;-0.60;99.90;;;;;;5073067;28;20218;-83
2021/01/10 06:15:48;;;;;;;22.70;15.38;;;-0.60;99.90;;;;;;5083377;28;20310;-83
2021/01/10 06:18:16;;;;;;;22.05;17.40;;;-0.60;99.90;;;;;;5093341;28;20292;-83
2021/01/10 06:20:43;;;;;;;21.95;16.38;;;-0.60;99.90;;;;;;5083063;28;20190;-83
2021/01/10 06:23:09;;;;;;;20.75;15.32;;;-0.60;99.90;;;;;;5072906;28;20225;-83
2021/01/10 06:25:38;;;;;;;22.63;16.98;;;-0.50;99.90;;;;;;5080566;28;20196;-83
2021/01/10 06:28:09;;;;;;;21.02;15.13;;;-0.50;99.90;;;;;;5093383;28;20204;-83
2021/01/10 06:30:36;;;;;;;22.55;16.13;;;-0.50;99.90;;;;;;5085146;28;20198;-83
2021/01/10 06:33:05;;;;;;;23.52;16.05;;;-0.60;99.90;;;;;;5072807;28;20218;-83
2021/01/10 06:35:35;;;;;;;22.92;16.25;;;-0.50;99.90;;;;;;5078807;28;20196;-83
2021/01/10 06:38:04;;;;;;;23.30;16.02;;;-0.50;99.90;;;;;;5092976;28;20196;-83
2021/01/10 06:40:33;;;;;;;22.40;15.23;;;-0.50;99.90;;;;;;5086640;28;20689;-83
2021/01/10 06:43:02;;;;;;;22.10;15.68;;;-0.40;99.90;;;;;;5071393;28;20308;-83
2021/01/10 06:45:33;;;;;;;23.20;16.85;;;-0.40;99.90;;;;;;5077264;28;20192;-84
2021/01/10 06:48:00;;;;;;;21.38;15.88;;;-0.40;99.90;;;;;;5092897;28;20287;-83
2021/01/10 06:50:26;;;;;;;23.42;17.40;;;-0.40;99.90;;;;;;5088308;28;20201;-84
2021/01/10 06:52:54;;;;;;;21.70;16.67;;;-0.40;99.90;;;;;;5072222;28;20228;-83
2021/01/10 06:55:22;;;;;;;23.00;17.13;;;-0.40;99.90;;;;;;5075038;28;20204;-82
2021/01/10 06:57:48;;;;;;;22.58;17.35;;;-0.40;99.90;;;;;;5092536;28;20258;-83
2021/01/10 07:00:15;;;;;;;20.27;16.23;;;-0.40;99.90;;;;;;5091971;28;20197;-83
2021/01/10 07:03:08;;;;;;;26.17;17.48;;;-0.40;99.90;;;;;;5091647;28;20228;-83
2021/01/10 07:06:06;;;;;;;23.17;17.20;;;-0.40;99.90;;;;;;5071761;28;20212;-83
2021/01/10 07:08:37;;;;;;;21.45;17.15;;;-0.40;99.90;;;;;;5072246;28;20232;-83
2021/01/10 07:11:37;;;;;;;21.33;17.38;;;-0.40;99.90;;;;;;5072086;28;20321;-83
2021/01/10 07:14:25;;;;;;;23.92;17.70;;;-0.40;99.90;;;;;;5079075;28;20213;-83
2021/01/10 07:17:28;;;;;;;22.60;16.65;;;-0.40;99.90;;;;;;5092279;28;20200;-83
2021/01/10 07:19:54;;;;;;;25.85;18.25;;;-0.40;99.90;;;;;;5078633;28;20201;-83
2021/01/10 07:22:34;;;;;;;23.13;17.05;;;-0.40;99.90;;;;;;5071685;28;20209;-83
2021/01/10 07:25:34;;;;;;;24.55;17.15;;;-0.30;99.90;;;;;;5085089;28;20216;-83
2021/01/10 07:28:34;;;;;;;22.40;15.05;;;-0.30;99.90;;;;;;5088964;28;20258;-83
2021/01/10 07:31:19;;;;;;;21.38;16.80;;;-0.30;99.90;;;;;;5071997;28;20212;-83
2021/01/10 07:33:46;;;;;;;20.92;17.15;;;-0.20;99.90;;;;;;5073587;28;20240;-83
2021/01/10 07:36:46;;;;;;;23.38;16.13;;;-0.20;99.90;;;;;;5093353;28;20188;-85
2021/01/10 07:39:13;;;;;;;25.00;15.98;;;-0.20;99.90;;;;;;5094840;28;20193;-83
2021/01/10 07:41:39;;;;;;;19.77;15.93;;;-0.10;99.90;;;;;;5099032;28;20423;-83
2021/01/10 07:44:06;;;;;;;22.05;16.30;;;-0.20;99.90;;;;;;5100337;28;20220;-83
2021/01/10 07:46:52;;;;;;;20.65;15.77;;;-0.20;99.90;;;;;;5100615;28;20199;-83
2021/01/10 07:49:19;;;;;;;23.25;16.25;;;-0.10;99.90;;;;;;5100551;28;20203;-84
2021/01/10 07:51:46;;;;;;;21.25;16.60;;;-0.10;99.90;;;;;;5101388;28;20619;-83
2021/01/10 07:54:12;;;;;;;23.63;17.10;;;0.00;99.90;;;;;;5098515;28;20216;-83
2021/01/10 07:56:38;;;;;;;21.73;15.40;;;0.00;99.90;;;;;;5098463;28;20200;-84
2021/01/10 07:59:14;;;;;;;21.05;16.10;;;0.00;99.90;;;;;;5099931;28;20714;-84
2021/01/10 08:01:47;;;;;;;19.98;15.48;;;0.10;99.90;;;;;;5099291;28;20283;-83
2021/01/10 08:04:33;;;;;;;22.53;15.37;;;0.10;99.90;;;;;;5102920;27;697076;-84
2021/01/10 08:07:00;;;;;;;20.45;14.77;;;0.20;99.90;;;;;;5118709;28;20210;-83
2021/01/10 08:09:31;;;;;;;20.25;15.45;;;0.30;99.90;;;;;;5118791;28;20199;-83
2021/01/10 08:11:58;;;;;;;21.23;16.00;;;0.40;99.90;;;;;;5115780;28;20680;-84
2021/01/10 08:14:24;;;;;;;20.77;16.08;;;0.40;99.90;;;;;;5116154;28;20219;-84
2021/01/10 08:16:50;;;;;;;23.08;15.82;;;0.50;99.90;;;;;;5116757;28;20216;-84
2021/01/10 08:19:16;;;;;;;18.73;14.73;;;0.60;99.90;;;;;;5118054;28;20197;-84
2021/01/10 08:21:44;;;;;;;21.45;15.02;;;0.60;99.90;;;;;;5118744;28;20199;-84
2021/01/10 08:24:11;;;;;;;19.05;15.30;;;0.70;99.90;;;;;;5116715;28;20280;-84
2021/01/10 08:26:38;;;;;;;23.73;16.02;;;0.80;99.90;;;;;;5117611;28;20214;-84
2021/01/10 08:29:06;;;;;;;24.77;16.08;;;0.90;99.90;;;;;;5118464;28;20567;-84
2021/01/10 08:31:34;;;;;;;22.02;15.70;;;1.00;99.90;;;;;;5117932;28;20283;-84
2021/01/10 08:34:02;;;;;;;17.75;15.48;;;1.10;99.90;;;;;;5118759;28;20685;-85
2021/01/10 08:36:29;;;;;;;19.27;14.80;;;1.20;99.90;;;;;;5117991;28;20398;-85
2021/01/10 08:38:58;;;;;;;20.92;16.10;;;1.30;99.90;;;;;;5114607;28;20652;-84
2021/01/10 08:41:28;;;;;;;17.15;15.13;;;1.30;99.90;;;;;;5118579;28;20192;-85
2021/01/10 08:43:56;;;;;;;21.27;15.27;;;1.40;99.90;;;;;;5115596;28;20265;-85
2021/01/10 08:46:23;;;;;;;19.90;15.43;;;1.50;99.90;;;;;;5117260;28;20579;-84
2021/01/10 08:48:49;;;;;;;20.95;16.02;;;1.60;99.90;;;;;;5117472;28;20209;-86
2021/01/10 08:51:32;;;;;;;20.35;15.80;;;1.70;99.90;;;;;;5117575;28;20211;-86
2021/01/10 08:54:00;;;;;;;27.35;19.05;;;1.80;99.90;;;;;;5118196;28;20311;-86
2021/01/10 08:56:26;;;;;;;21.55;17.15;;;1.90;99.90;;;;;;5116382;28;20204;-86
2021/01/10 08:58:56;;;;;;;23.02;15.38;;;1.90;99.90;;;;;;5116522;28;20202;-86
2021/01/10 09:01:24;;;;;;;19.05;14.30;;;2.00;99.90;;;;;;5121498;28;20627;-86
2021/01/10 09:04:01;;;;;;;19.58;15.95;;;2.20;99.90;;;;;;5120496;28;20697;-86
2021/01/10 09:06:45;;;;;;;20.52;16.63;;;2.40;99.90;;;;;;5115562;28;20193;-85
2021/01/10 09:09:32;;;;;;;20.80;15.80;;;2.60;99.90;;;;;;5116049;28;20202;-86
2021/01/10 09:12:06;;;;;;;16.77;14.30;;;2.70;99.90;;;;;;5116512;28;20198;-80
2021/01/10 09:14:43;;;;;;;19.15;15.90;;;2.80;99.90;;;;;;5110553;28;20214;-79
2021/01/10 09:17:12;;;;;;;19.17;15.27;;;3.00;99.90;;;;;;5102891;28;20220;-79
2021/01/10 09:19:38;;;;;;;23.20;16.70;;;3.30;99.90;;;;;;5110579;28;20517;-79
2021/01/10 09:22:05;;;;;;;17.42;14.63;;;3.50;99.90;;;;;;5107627;28;20456;-83
2021/01/10 09:24:33;;;;;;;18.03;16.00;;;3.70;99.90;;;;;;5099832;28;20275;-85
2021/01/10 09:27:09;;;;;;;16.73;14.60;;;4.00;99.90;;;;;;5098071;28;20448;-87
2021/01/10 09:29:35;;;;;;;19.30;15.13;;;5.00;99.90;;;;;;5111154;28;20481;-85
2021/01/10 09:32:03;;;;;;;17.23;13.97;;;5.40;99.90;;;;;;5105571;28;20527;-85
2021/01/10 09:34:29;;;;;;;16.90;14.10;;;5.40;99.60;;;;;;5102807;28;21389;-84
2021/01/10 09:37:03;;;;;;;15.60;12.63;;;5.20;99.10;;;;;;5103144;28;20459;-84
2021/01/10 09:39:41;;;;;;;19.70;13.30;;;5.00;98.80;;;;;;5101029;28;20476;-85
2021/01/10 09:42:07;;;;;;;15.23;13.17;;;5.00;98.80;;;;;;5102594;28;20442;-85
2021/01/10 09:44:34;;;;;;;15.57;12.97;;;5.00;99.10;;;;;;5102386;28;20466;-86
2021/01/10 09:47:00;;;;;;;17.30;13.30;;;5.20;98.80;;;;;;5102484;28;20846;-85
2021/01/10 09:49:30;;;;;;;14.10;11.83;;;5.30;98.40;;;;;;5103504;28;20444;-86
2021/01/10 09:51:58;;;;;;;14.93;12.03;;;4.80;97.80;;;;;;5102450;28;20453;-86
2021/01/10 09:54:25;;;;;;;15.27;12.50;;;5.20;98.30;;;;;;5101340;28;20535;-86
2021/01/10 09:56:53;;;;;;;17.23;11.57;;;5.40;98.00;;;;;;5102451;28;20438;-85
2021/01/10 09:59:40;;;;;;;14.30;11.43;;;5.80;97.90;;;;;;5102910;28;20478;-86
2021/01/10 10:02:11;;;;;;;12.83;10.80;;;5.30;96.70;;;;;;5103068;28;20937;-85
2021/01/10 10:04:38;;;;;;;12.00;10.50;;;5.20;97.30;;;;;;5098685;28;20469;-86
2021/01/10 10:07:04;;;;;;;13.07;11.33;;;5.20;97.50;;;;;;5103401;28;20446;-85
2021/01/10 10:09:51;;;;;;;13.93;12.43;;;5.20;97.60;;;;;;5103542;28;20449;-85
2021/01/10 10:12:20;;;;;;;14.53;13.03;;;5.60;97.60;;;;;;5102015;28;20541;-85
2021/01/10 10:15:06;;;;;;;14.80;12.57;;;6.60;97.10;;;;;;5101066;28;20447;-85
2021/01/10 10:17:35;;;;;;;11.37;9.53;;;8.10;94.90;;;;;;5102377;28;20440;-84
2021/01/10 10:20:01;;;;;;;12.10;10.47;;;8.10;92.50;;;;;;5101998;28;20441;-86
2021/01/10 10:22:30;;;;;;;11.43;10.23;;;8.20;92.10;;;;;;5102357;28;20491;-84
2021/01/10 10:24:57;;;;;;;14.30;12.70;;;7.50;91.90;;;;;;5102205;28;20437;-87
2021/01/10 10:27:26;;;;;;;13.00;10.93;;;6.90;92.80;;;;;;5099547;28;20820;-91
2021/01/10 10:29:53;;;;;;;15.20;11.00;;;7.10;93.20;;;;;;5099195;28;20445;-89
2021/01/10 10:32:19;;;;;;;12.87;11.43;;;7.50;92.20;;;;;;5104091;28;20488;-89
2021/01/10 10:34:45;;;;;;;12.10;10.63;;;8.00;91.90;;;;;;5101951;28;20446;-89
2021/01/10 10:37:13;;;;;;;12.67;11.37;;;8.70;90.90;;;;;;5102225;28;20430;-89
2021/01/10 10:39:40;;;;;;;12.53;11.27;;;10.50;89.40;;;;;;5099333;28;20438;-90
2021/01/10 10:42:10;;;;;;;13.27;12.00;;;11.60;82.20;;;;;;5102888;28;20431;-90
2021/01/10 10:44:37;;;;;;;13.57;12.27;;;12.90;78.20;;;;;;5102378;28;20465;-90
2021/01/10 10:47:04;;;;;;;12.90;11.60;;;14.40;72.40;;;;;;5102702;28;20441;-90
2021/01/10 10:49:30;;;;;;;14.50;13.10;;;16.60;67.00;;;;;;5100613;28;20443;-90
2021/01/10 10:51:57;;;;;;;12.70;11.50;;;18.20;59.70;;;;;;5102031;28;20533;-90
2021/01/10 10:54:23;;;;;;;13.63;12.50;;;19.30;55.30;;;;;;5102005;28;20511;-90
2021/01/10 10:56:50;;;;;;;15.00;13.70;;;18.90;52.70;;;;;;5102168;28;20505;-89
2021/01/10 10:59:17;;;;;;;15.50;13.27;;;19.70;51.10;;;;;;5102752;28;20449;-85
2021/01/10 11:01:45;;;;;;;14.23;13.03;;;21.00;49.70;;;;;;5101872;28;20436;-84
2021/01/10 11:04:12;;;;;;;15.13;13.83;;;21.70;46.90;;;;;;5102205;28;20477;-85
2021/01/10 11:06:39;;;;;;;15.27;13.97;;;21.60;45.30;;;;;;5099604;28;20647;-85
2021/01/10 11:09:08;;;;;;;13.33;12.23;;;22.00;45.40;;;;;;5101574;28;20776;-85
2021/01/10 11:11:39;;;;;;;12.20;11.20;;;21.50;43.50;;;;;;5099564;28;20434;-85
2021/01/10 11:14:05;;;;;;;11.37;10.37;;;20.60;42.40;;;;;;5102022;28;20485;-89
2021/01/10 11:16:33;;;;;;;12.80;10.90;;;20.60;43.80;;;;;;5101023;28;20469;-85
2021/01/10 11:19:00;;;;;;;12.50;11.33;;;19.60;44.20;;;;;;5101794;28;20451;-86
2021/01/10 11:21:28;;;;;;;12.03;11.03;;;20.90;44.10;;;;;;5102546;28;20444;-83
2021/01/10 11:23:54;;;;;;;12.10;11.00;;;21.60;42.00;;;;;;5099408;28;20514;-84
2021/01/10 11:26:20;;;;;;;12.23;11.13;;;18.50;42.80;;;;;;5100729;28;20470;-83
2021/01/10 11:28:46;;;;;;;11.63;10.67;;;17.20;45.60;;;;;;5100586;28;20439;-84
2021/01/10 11:31:13;;;;;;;12.67;11.20;;;18.70;46.70;;;;;;5101532;28;20565;-87
2021/01/10 11:33:39;;;;;;;11.90;10.90;;;18.00;46.00;;;;;;5100833;28;20504;-85
2021/01/10 11:36:07;;;;;;;10.17;9.33;;;18.30;45.30;;;;;;5099326;28;20439;-85
2021/01/10 11:38:34;;;;;;;10.03;9.20;;;18.60;45.70;;;;;;5100390;28;20447;-85
2021/01/10 11:41:05;;;;;;;9.50;8.70;;;19.30;44.70;;;;;;5100860;28;20565;-86
2021/01/10 11:43:32;;;;;;;12.30;11.20;;;19.10;44.90;;;;;;5100636;28;20465;-85
2021/01/10 11:45:58;;;;;;;11.10;10.20;;;18.20;44.60;;;;;;5100459;28;20514;-85
2021/01/10 11:48:24;;;;;;;11.43;10.33;;;18.80;44.50;;;;;;5100591;28;20951;-85
2021/01/10 11:50:51;;;;;;;11.33;10.43;;;18.40;45.00;;;;;;5101125;28;20445;-86
2021/01/10 11:53:18;;;;;;;10.80;9.80;;;18.90;45.30;;;;;;5100030;28;20471;-85
2021/01/10 11:55:45;;;;;;;11.80;10.70;;;19.80;43.70;;;;;;5100417;28;20433;-85
2021/01/10 11:58:11;;;;;;;11.47;10.47;;;18.30;43.50;;;;;;5100563;28;20537;-85
2021/01/10 12:00:37;;;;;;;11.60;10.60;;;16.90;45.70;;;;;;5098726;28;20929;-86
2021/01/10 12:03:04;;;;;;;11.80;10.13;;;16.70;46.80;;;;;;5100797;28;20461;-85
2021/01/10 12:05:30;;;;;;;11.00;9.90;;;16.00;47.10;;;;;;5101058;28;20441;-85
2021/01/10 12:07:56;;;;;;;11.57;10.30;;;15.50;48.10;;;;;;5099832;28;20451;-86
2021/01/10 12:10:23;;;;;;;10.40;9.40;;;16.60;50.20;;;;;;5098705;28;20452;-86
2021/01/10 12:12:49;;;;;;;10.93;9.70;;;17.80;47.80;;;;;;5099352;28;20495;-86
2021/01/10 12:15:16;;;;;;;11.27;10.27;;;19.40;45.00;;;;;;5100967;28;20838;-86
2021/01/10 12:17:42;;;;;;;10.27;9.37;;;20.20;43.30;;;;;;5100908;28;20508;-86
2021/01/10 12:20:09;;;;;;;9.37;8.57;;;20.10;43.50;;;;;;5100236;28;20512;-86
2021/01/10 12:22:35;;;;;;;9.20;8.23;;;20.30;43.60;;;;;;5100576;28;20443;-85
2021/01/10 12:25:01;;;;;;;11.00;10.10;;;17.60;42.60;;;;;;5099888;28;20444;-86
2021/01/10 12:27:28;;;;;;;9.50;8.63;;;16.40;45.60;;;;;;5101260;28;20457;-86
2021/01/10 12:29:54;;;;;;;9.57;8.57;;;16.00;46.30;;;;;;5098416;28;21199;-85
2021/01/10 12:32:20;;;;;;;9.00;8.13;;;14.20;47.30;;;;;;5100078;28;20436;-85
2021/01/10 12:34:47;;;;;;;9.93;8.97;;;12.60;49.10;;;;;;5099550;28;20560;-85
2021/01/10 12:37:17;;;;;;;11.60;9.40;;;11.30;51.80;;;;;;5100013;28;20434;-85
2021/01/10 12:39:43;;;;;;;10.50;8.53;;;9.80;55.80;;;;;;5098451;28;20427;-85